createdAt,value
2019-05-14T00:00:12.166Z,56.82
2019-05-14T00:02:41.288Z,55.61
2019-05-14T00:05:12.021Z,54.04
2019-05-14T00:07:41.416Z,53.59
2019-05-14T00:10:11.869Z,53.46
2019-05-14T00:12:41.859Z,54.14
2019-05-14T00:15:11.233Z,55.41
2019-05-14T00:17:41.604Z,54.11
2019-05-14T00:20:13.105Z,56.56
2019-05-14T00:22:41.668Z,54.84
2019-05-14T00:25:11.690Z,55.49
2019-05-14T00:27:41.428Z,54.04
2019-05-14T00:30:11.503Z,54.32
2019-05-14T00:32:41.486Z,56.00
2019-05-14T00:35:11.085Z,56.91
2019-05-14T00:37:41.436Z,55.96
2019-05-14T00:40:11.815Z,56.30
2019-05-14T00:42:41.482Z,55.59
2019-05-14T00:45:11.530Z,55.85
2019-05-14T00:47:43.697Z,55.89
2019-05-14T00:50:12.535Z,56.49
2019-05-14T00:52:44.213Z,56.33
2019-05-14T00:55:11.868Z,55.46
2019-05-14T00:57:42.519Z,57.68
2019-05-14T01:00:11.645Z,58.76
2019-05-14T01:02:41.562Z,56.45
2019-05-14T01:05:12.395Z,59.02
2019-05-14T01:07:42.346Z,58.74
2019-05-14T01:10:11.600Z,57.12
2019-05-14T01:12:41.372Z,57.39
2019-05-14T01:15:14.266Z,57.87
2019-05-14T01:17:42.277Z,59.21
2019-05-14T01:20:12.435Z,59.42
2019-05-14T01:22:42.207Z,58.25
2019-05-14T01:25:12.060Z,58.99
2019-05-14T01:27:41.373Z,59.06
2019-05-14T01:30:12.426Z,59.99
2019-05-14T01:32:42.040Z,58.25
2019-05-14T01:35:12.018Z,57.90
2019-05-14T01:37:41.607Z,59.24
2019-05-14T01:40:11.416Z,59.22
2019-05-14T01:42:41.655Z,59.21
2019-05-14T01:45:23.560Z,58.36
2019-05-14T01:47:41.462Z,61.46
2019-05-14T01:50:11.313Z,61.05
2019-05-14T01:52:41.602Z,58.68
2019-05-14T01:55:24.376Z,59.59
2019-05-14T01:57:42.536Z,61.09
2019-05-14T02:00:11.661Z,61.09
2019-05-14T02:02:41.819Z,61.53
2019-05-14T02:05:12.482Z,59.24
2019-05-14T02:07:42.048Z,59.36
2019-05-14T02:10:11.810Z,60.44
2019-05-14T02:12:42.357Z,60.25
2019-05-14T02:15:12.052Z,62.25
2019-05-14T02:17:41.352Z,62.55
2019-05-14T02:20:12.379Z,63.08
2019-05-14T02:22:41.704Z,62.84
2019-05-14T02:25:11.655Z,62.48
2019-05-14T02:27:41.371Z,63.82
2019-05-14T02:30:10.794Z,60.41
2019-05-14T02:32:40.754Z,61.92
2019-05-14T02:35:10.277Z,62.38
2019-05-14T02:37:40.419Z,62.67
2019-05-14T02:40:09.970Z,64.77
2019-05-14T02:42:40.020Z,65.05
2019-05-14T02:45:10.052Z,63.76
2019-05-14T02:47:39.641Z,64.03
2019-05-14T02:50:09.948Z,62.75
2019-05-14T02:52:40.151Z,62.97
2019-05-14T02:55:09.707Z,65.78
2019-05-14T02:57:39.399Z,64.95
2019-05-14T03:00:10.184Z,67.24
2019-05-14T03:02:40.306Z,64.55
2019-05-14T03:05:10.128Z,64.71
2019-05-14T03:07:39.641Z,66.07
2019-05-14T03:10:10.746Z,65.65
2019-05-14T03:12:39.966Z,66.26
2019-05-14T03:15:09.795Z,67.87
2019-05-14T03:17:40.709Z,65.72
2019-05-14T03:20:10.204Z,68.00
2019-05-14T03:22:53.879Z,67.08
2019-05-14T03:25:10.423Z,67.91
2019-05-14T03:27:40.540Z,65.90
2019-05-14T03:30:12.623Z,68.81
2019-05-14T03:32:42.566Z,68.11
2019-05-14T03:35:13.763Z,66.57
2019-05-14T03:37:40.426Z,67.80
2019-05-14T03:40:09.650Z,66.67
2019-05-14T03:42:39.944Z,66.28
2019-05-14T03:45:09.297Z,67.29
2019-05-14T03:47:39.371Z,70.36
2019-05-14T03:50:10.261Z,70.44
2019-05-14T03:52:39.946Z,68.35
2019-05-14T03:55:09.672Z,70.15
2019-05-14T03:57:39.925Z,70.01
2019-05-14T04:00:10.503Z,68.90
2019-05-14T04:02:39.442Z,70.00
2019-05-14T04:05:09.497Z,68.95
2019-05-14T04:07:39.861Z,67.76
2019-05-14T04:10:10.371Z,71.71
2019-05-14T04:12:42.236Z,68.83
2019-05-14T04:15:11.050Z,68.96
2019-05-14T04:17:42.475Z,67.31
2019-05-14T04:20:11.216Z,67.52
2019-05-14T04:22:41.049Z,69.75
2019-05-14T04:25:11.081Z,68.20
2019-05-14T04:27:41.040Z,70.61
2019-05-14T04:30:10.331Z,69.23
2019-05-14T04:32:40.875Z,69.14
2019-05-14T04:35:09.817Z,69.50
2019-05-14T04:37:39.960Z,71.40
2019-05-14T04:40:10.250Z,68.92
2019-05-14T04:42:40.349Z,69.71
2019-05-14T04:45:10.885Z,70.99
2019-05-14T04:47:41.952Z,69.32
2019-05-14T04:50:10.878Z,69.29
2019-05-14T04:52:40.543Z,67.99
2019-05-14T04:55:10.159Z,68.72
2019-05-14T04:57:39.523Z,68.30
2019-05-14T05:00:12.070Z,69.35
2019-05-14T05:02:40.022Z,67.40
2019-05-14T05:05:09.418Z,68.73
2019-05-14T05:07:40.379Z,68.34
2019-05-14T05:10:10.210Z,67.18
2019-05-14T05:12:38.958Z,67.83
2019-05-14T05:15:09.288Z,68.17
2019-05-14T05:17:47.716Z,67.17
2019-05-14T05:20:10.203Z,67.38
2019-05-14T05:22:39.629Z,67.00
2019-05-14T05:25:08.845Z,68.31
2019-05-14T05:27:38.149Z,68.24
2019-05-14T05:30:08.831Z,66.64
2019-05-14T05:32:38.962Z,69.85
2019-05-14T05:35:09.518Z,67.72
2019-05-14T05:37:38.599Z,69.97
2019-05-14T05:40:09.145Z,67.56
2019-05-14T05:42:38.696Z,66.54
2019-05-14T05:45:08.633Z,68.37
2019-05-14T05:47:39.091Z,68.25
2019-05-14T05:50:10.838Z,67.47
2019-05-14T05:52:39.300Z,67.60
2019-05-14T05:55:09.123Z,67.75
2019-05-14T05:57:39.344Z,67.73
2019-05-14T06:00:10.095Z,66.77
2019-05-14T06:02:39.853Z,67.41
2019-05-14T06:05:09.929Z,67.02
2019-05-14T06:07:39.402Z,65.99
2019-05-14T06:10:08.986Z,65.40
2019-05-14T06:12:38.813Z,65.96
2019-05-14T06:15:08.657Z,66.32
2019-05-14T06:17:39.095Z,65.71
2019-05-14T06:20:08.515Z,65.43
2019-05-14T06:22:38.462Z,65.05
2019-05-14T06:25:11.135Z,64.68
2019-05-14T06:27:38.271Z,64.58
2019-05-14T06:30:09.046Z,64.84
2019-05-14T06:32:38.633Z,64.70
2019-05-14T06:35:08.765Z,64.47
2019-05-14T06:37:38.541Z,63.95
2019-05-14T06:40:10.605Z,62.90
2019-05-14T06:42:39.541Z,63.31
2019-05-14T06:45:09.131Z,62.15
2019-05-14T06:47:38.246Z,61.97
2019-05-14T06:50:08.564Z,61.54
2019-05-14T06:52:38.729Z,60.19
2019-05-14T06:55:08.987Z,59.86
2019-05-14T06:57:39.383Z,61.48
2019-05-14T07:00:09.327Z,61.84
2019-05-14T07:02:43.261Z,60.23
2019-05-14T07:05:08.630Z,59.61
2019-05-14T07:07:40.123Z,59.17
2019-05-14T07:10:09.081Z,58.30
2019-05-14T07:12:38.806Z,57.83
2019-05-14T07:15:09.397Z,56.96
2019-05-14T07:17:38.575Z,57.55
2019-05-14T07:20:10.751Z,56.81
2019-05-14T07:22:39.353Z,57.22
2019-05-14T07:25:09.785Z,56.44
2019-05-14T07:27:39.304Z,56.98
2019-05-14T07:30:09.113Z,56.00
2019-05-14T07:32:39.462Z,55.53
2019-05-14T07:35:09.275Z,56.22
2019-05-14T07:37:39.639Z,55.98
2019-05-14T07:40:09.257Z,55.87
2019-05-14T07:42:38.488Z,56.08
2019-05-14T07:45:09.591Z,56.20
2019-05-14T07:47:38.986Z,56.03
2019-05-14T07:50:08.748Z,55.66
2019-05-14T07:52:45.312Z,55.56
2019-05-14T07:55:09.459Z,55.41
2019-05-14T07:57:39.243Z,55.54
2019-05-14T08:00:10.108Z,55.08
2019-05-14T08:02:38.588Z,55.11
2019-05-14T08:05:08.767Z,54.57
2019-05-14T08:07:38.829Z,53.94
2019-05-14T08:10:11.039Z,52.77
2019-05-14T08:12:39.538Z,52.03
2019-05-14T08:15:18.271Z,53.04
2019-05-14T08:17:40.170Z,52.14
2019-05-14T08:20:12.474Z,51.57
2019-05-14T08:22:40.974Z,51.27
2019-05-14T08:25:11.175Z,51.51
2019-05-14T08:27:39.658Z,50.55
2019-05-14T08:30:11.026Z,50.90
2019-05-14T08:32:39.524Z,50.68
2019-05-14T08:35:09.028Z,50.03
2019-05-14T08:37:38.709Z,48.69
2019-05-14T08:40:09.443Z,49.54
2019-05-14T08:42:38.468Z,49.69
2019-05-14T08:45:10.592Z,49.89
2019-05-14T08:47:39.002Z,46.73
2019-05-14T08:50:09.154Z,48.93
2019-05-14T08:52:39.222Z,48.32
2019-05-14T08:55:10.814Z,48.54
2019-05-14T08:57:38.927Z,48.10
2019-05-14T09:00:13.655Z,48.72
2019-05-14T09:02:39.286Z,47.63
2019-05-14T09:05:10.122Z,47.20
2019-05-14T09:07:38.659Z,45.96
2019-05-14T09:10:08.928Z,47.45
2019-05-14T09:12:38.857Z,47.53
2019-05-14T09:15:09.849Z,46.60
2019-05-14T09:17:38.983Z,45.96
2019-05-14T09:20:11.017Z,46.68
2019-05-14T09:22:39.727Z,45.73
2019-05-14T09:25:09.111Z,46.29
2019-05-14T09:27:38.797Z,45.47
2019-05-14T09:30:09.705Z,46.08
2019-05-14T09:32:38.966Z,46.39
2019-05-14T09:35:09.971Z,45.54
2019-05-14T09:37:39.633Z,44.30
2019-05-14T09:40:09.075Z,44.69
2019-05-14T09:42:39.221Z,44.37
2019-05-14T09:45:11.240Z,43.77
2019-05-14T09:47:39.197Z,44.16
2019-05-14T09:50:22.688Z,43.23
2019-05-14T09:52:39.667Z,41.67
2019-05-14T09:55:09.358Z,42.43
2019-05-14T09:57:38.772Z,40.89
2019-05-14T10:00:09.292Z,42.70
2019-05-14T10:02:39.273Z,42.80
2019-05-14T10:05:09.153Z,43.07
2019-05-14T10:07:39.237Z,42.64
2019-05-14T10:10:08.540Z,43.19
2019-05-14T10:12:47.786Z,43.23
2019-05-14T10:15:09.017Z,43.01
2019-05-14T10:17:39.334Z,44.09
2019-05-14T10:20:08.811Z,44.33
2019-05-14T10:22:39.798Z,44.58
2019-05-14T10:25:09.111Z,44.65
2019-05-14T10:27:37.816Z,44.83
2019-05-14T10:30:09.798Z,45.02
2019-05-14T10:32:41.261Z,45.17
2019-05-14T10:35:08.920Z,43.92
2019-05-14T10:37:39.811Z,43.68
2019-05-14T10:40:10.452Z,43.66
2019-05-14T10:42:40.523Z,43.42
2019-05-14T10:45:12.714Z,43.19
2019-05-14T10:47:39.826Z,43.18
2019-05-14T10:50:13.311Z,42.95
2019-05-14T10:52:39.559Z,42.17
2019-05-14T10:55:08.611Z,41.97
2019-05-14T10:57:37.067Z,42.07
2019-05-14T11:00:08.863Z,42.42
2019-05-14T11:02:38.850Z,42.69
2019-05-14T11:05:07.531Z,42.30
2019-05-14T11:07:41.385Z,42.04
2019-05-14T11:10:09.599Z,41.90
2019-05-14T11:12:39.544Z,41.94
2019-05-14T11:15:09.879Z,41.38
2019-05-14T11:17:40.684Z,41.22
2019-05-14T11:20:09.204Z,40.63
2019-05-14T11:22:37.709Z,40.76
2019-05-14T11:25:09.136Z,41.23
2019-05-14T11:27:38.866Z,41.94
2019-05-14T11:30:09.018Z,42.44
2019-05-14T11:32:38.585Z,42.17
2019-05-14T11:35:12.889Z,42.09
2019-05-14T11:37:41.422Z,41.99
2019-05-14T11:40:09.155Z,41.49
2019-05-14T11:42:38.799Z,41.35
2019-05-14T11:45:09.145Z,41.74
2019-05-14T11:47:38.073Z,41.63
2019-05-14T11:50:09.690Z,42.07
2019-05-14T11:52:38.831Z,41.78
2019-05-14T11:55:09.095Z,41.73
2019-05-14T11:57:37.621Z,42.12
2019-05-14T12:00:08.808Z,41.79
2019-05-14T12:02:38.525Z,41.66
2019-05-14T12:05:09.045Z,41.86
2019-05-14T12:07:38.902Z,41.91
2019-05-14T12:10:08.989Z,42.18
2019-05-14T12:12:37.661Z,42.27
2019-05-14T12:15:08.858Z,41.93
2019-05-14T12:17:39.314Z,41.39
2019-05-14T12:20:08.809Z,41.22
2019-05-14T12:22:39.374Z,40.80
2019-05-14T12:25:08.350Z,41.07
2019-05-14T12:27:38.769Z,41.45
2019-05-14T12:30:09.781Z,41.55
2019-05-14T12:32:39.496Z,41.43
2019-05-14T12:35:09.009Z,40.90
2019-05-14T12:37:38.814Z,40.60
2019-05-14T12:40:08.993Z,39.74
2019-05-14T12:42:39.267Z,39.80
2019-05-14T12:45:10.391Z,39.71
2019-05-14T12:47:38.860Z,40.02
2019-05-14T12:50:09.342Z,39.94
2019-05-14T12:52:38.865Z,39.14
2019-05-14T12:55:09.133Z,39.29
2019-05-14T12:57:39.381Z,38.84
2019-05-14T13:00:09.399Z,38.52
2019-05-14T13:02:38.675Z,38.67
2019-05-14T13:05:08.934Z,39.00
2019-05-14T13:07:41.568Z,38.58
2019-05-14T13:10:09.340Z,38.20
2019-05-14T13:12:39.160Z,38.86
2019-05-14T13:15:08.937Z,39.03
2019-05-14T13:17:38.920Z,38.94
2019-05-14T13:20:13.817Z,38.44
2019-05-14T13:22:46.029Z,38.73
2019-05-14T13:25:11.271Z,38.29
2019-05-14T13:27:39.877Z,38.75
2019-05-14T13:30:10.223Z,37.79
2019-05-14T13:32:39.745Z,38.17
2019-05-14T13:35:12.902Z,37.90
2019-05-14T13:37:39.766Z,38.31
2019-05-14T13:40:09.503Z,38.46
2019-05-14T13:42:39.861Z,38.83
2019-05-14T13:45:10.438Z,38.34
2019-05-14T13:47:39.031Z,38.43
2019-05-14T13:50:08.486Z,36.35
2019-05-14T13:52:40.391Z,36.36
2019-05-14T13:55:09.678Z,36.97
2019-05-14T13:57:39.856Z,36.93
2019-05-14T14:00:11.697Z,37.11
2019-05-14T14:02:40.770Z,36.38
2019-05-14T14:05:10.168Z,37.38
2019-05-14T14:07:39.673Z,36.93
2019-05-14T14:10:09.565Z,36.87
2019-05-14T14:12:40.341Z,36.70
2019-05-14T14:15:09.929Z,36.44
2019-05-14T14:17:39.383Z,36.11
2019-05-14T14:20:09.142Z,35.91
2019-05-14T14:22:40.074Z,37.31
2019-05-14T14:25:09.263Z,37.11
2019-05-14T14:27:40.699Z,36.30
2019-05-14T14:30:09.444Z,36.52
2019-05-14T14:32:40.614Z,36.05
2019-05-14T14:35:08.952Z,36.50
2019-05-14T14:37:39.640Z,35.90
2019-05-14T14:40:09.949Z,36.14
2019-05-14T14:42:40.178Z,36.09
2019-05-14T14:45:10.132Z,36.41
2019-05-14T14:47:39.827Z,36.50
2019-05-14T14:50:09.987Z,36.51
2019-05-14T14:52:38.499Z,35.42
2019-05-14T14:55:07.727Z,35.55
2019-05-14T14:57:43.849Z,36.21
2019-05-14T15:00:10.903Z,36.42
2019-05-14T15:02:41.193Z,35.62
2019-05-14T15:05:14.149Z,36.29
2019-05-14T15:07:41.147Z,36.18
2019-05-14T15:10:10.321Z,35.67
2019-05-14T15:12:39.898Z,36.30
2019-05-14T15:15:09.407Z,36.37
2019-05-14T15:17:39.301Z,36.66
2019-05-14T15:20:10.292Z,36.68
2019-05-14T15:22:38.425Z,36.79
2019-05-14T15:25:09.057Z,36.84
2019-05-14T15:27:38.543Z,36.63
2019-05-14T15:30:09.240Z,36.29
2019-05-14T15:32:37.733Z,36.70
2019-05-14T15:35:10.711Z,36.50
2019-05-14T15:37:42.614Z,36.92
2019-05-14T15:40:10.825Z,37.14
2019-05-14T15:42:39.776Z,37.33
2019-05-14T15:45:09.456Z,37.11
2019-05-14T15:47:38.918Z,36.54
2019-05-14T15:50:09.385Z,36.89
2019-05-14T15:52:39.433Z,37.12
2019-05-14T15:55:09.970Z,37.28
2019-05-14T15:57:39.787Z,36.98
2019-05-14T16:00:10.087Z,37.37
2019-05-14T16:02:40.012Z,37.49
2019-05-14T16:05:10.079Z,37.58
2019-05-14T16:07:39.566Z,37.77
2019-05-14T16:10:08.849Z,37.67
2019-05-14T16:12:39.803Z,37.68
2019-05-14T16:15:09.455Z,37.44
2019-05-14T16:17:48.495Z,37.39
2019-05-14T16:20:09.418Z,37.25
2019-05-14T16:22:39.832Z,37.26
2019-05-14T16:25:09.896Z,37.39
2019-05-14T16:27:39.602Z,37.66
2019-05-14T16:30:09.850Z,37.59
2019-05-14T16:32:39.598Z,37.50
2019-05-14T16:35:09.282Z,37.76
2019-05-14T16:37:39.127Z,37.71
2019-05-14T16:40:08.738Z,37.68
2019-05-14T16:42:39.558Z,37.86
2019-05-14T16:45:08.792Z,37.87
2019-05-14T16:47:39.769Z,37.98
2019-05-14T16:50:08.990Z,37.88
2019-05-14T16:52:41.760Z,38.05
2019-05-14T16:55:22.510Z,38.04
2019-05-14T16:57:39.151Z,38.07
2019-05-14T17:00:09.974Z,38.04
2019-05-14T17:02:38.895Z,38.19
2019-05-14T17:05:09.182Z,38.15
2019-05-14T17:07:38.732Z,39.52
2019-05-14T17:10:08.534Z,38.50
2019-05-14T17:12:51.689Z,38.35
2019-05-14T17:15:09.653Z,38.49
2019-05-14T17:17:38.276Z,38.68
2019-05-14T17:20:08.575Z,38.71
2019-05-14T17:22:39.714Z,38.83
2019-05-14T17:25:09.412Z,39.04
2019-05-14T17:27:39.452Z,39.43
2019-05-14T17:30:09.058Z,39.34
2019-05-14T17:32:39.155Z,39.40
2019-05-14T17:35:08.427Z,39.51
2019-05-14T17:37:39.498Z,39.49
2019-05-14T17:40:09.385Z,39.50
2019-05-14T17:42:39.356Z,39.26
2019-05-14T17:45:09.241Z,39.11
2019-05-14T17:47:38.742Z,39.29
2019-05-14T17:50:08.840Z,39.35
2019-05-14T17:52:42.876Z,39.29
2019-05-14T17:55:12.252Z,39.60
2019-05-14T17:57:46.802Z,39.76
2019-05-14T18:00:10.517Z,39.85
2019-05-14T18:02:39.147Z,39.56
2019-05-14T18:05:09.541Z,39.60
2019-05-14T18:07:38.023Z,39.64
2019-05-14T18:10:08.772Z,39.59
2019-05-14T18:12:39.769Z,39.67
2019-05-14T18:15:08.720Z,39.85
2019-05-14T18:17:39.285Z,39.86
2019-05-14T18:20:08.592Z,39.77
2019-05-14T18:22:42.043Z,39.95
2019-05-14T18:25:07.788Z,39.80
2019-05-14T18:27:39.195Z,39.79
2019-05-14T18:30:09.307Z,39.69
2019-05-14T18:32:38.168Z,39.24
2019-05-14T18:35:07.292Z,39.20
2019-05-14T18:37:35.806Z,39.07
2019-05-14T18:40:09.108Z,39.07
2019-05-14T18:42:39.022Z,39.25
2019-05-14T18:45:08.581Z,39.31
2019-05-14T18:47:39.523Z,39.21
2019-05-14T18:50:09.160Z,39.14
2019-05-14T18:52:39.961Z,39.48
2019-05-14T18:55:08.625Z,39.53
2019-05-14T18:57:38.221Z,39.28
2019-05-14T19:00:08.527Z,39.37
2019-05-14T19:02:39.167Z,39.65
2019-05-14T19:05:10.320Z,39.48
2019-05-14T19:07:39.666Z,39.50
2019-05-14T19:10:09.485Z,39.50
2019-05-14T19:12:38.710Z,39.53
2019-05-14T19:15:08.855Z,39.50
2019-05-14T19:17:38.664Z,39.63
2019-05-14T19:20:08.481Z,39.83
2019-05-14T19:22:39.463Z,40.01
2019-05-14T19:25:08.475Z,39.88
2019-05-14T19:27:37.976Z,40.04
2019-05-14T19:30:08.453Z,40.03
2019-05-14T19:32:39.350Z,40.00
2019-05-14T19:35:11.051Z,40.60
2019-05-14T19:37:39.545Z,40.42
2019-05-14T19:40:09.191Z,40.36
2019-05-14T19:42:38.935Z,40.39
2019-05-14T19:45:08.509Z,40.97
2019-05-14T19:47:39.742Z,40.67
2019-05-14T19:50:08.922Z,40.81
2019-05-14T19:52:39.093Z,41.06
2019-05-14T19:55:11.368Z,40.92
2019-05-14T19:57:39.859Z,41.63
2019-05-14T20:00:10.474Z,41.55
2019-05-14T20:02:39.170Z,42.26
2019-05-14T20:05:08.962Z,41.57
2019-05-14T20:07:38.678Z,41.84
2019-05-14T20:10:10.048Z,41.48
2019-05-14T20:12:39.137Z,41.72
2019-05-14T20:15:09.451Z,41.99
2019-05-14T20:17:38.799Z,41.72
2019-05-14T20:20:09.408Z,41.83
2019-05-14T20:22:39.163Z,41.63
2019-05-14T20:25:10.196Z,42.09
2019-05-14T20:27:39.281Z,42.53
2019-05-14T20:30:10.437Z,42.57
2019-05-14T20:32:39.286Z,42.31
2019-05-14T20:35:09.268Z,42.81
2019-05-14T20:37:38.858Z,42.65
2019-05-14T20:40:09.865Z,42.74
2019-05-14T20:42:39.104Z,43.30
2019-05-14T20:45:09.051Z,43.00
2019-05-14T20:47:39.042Z,43.28
2019-05-14T20:50:09.419Z,42.59
2019-05-14T20:52:38.721Z,43.13
2019-05-14T20:55:09.513Z,43.02
2019-05-14T20:57:38.547Z,43.91
2019-05-14T21:00:11.323Z,43.33
2019-05-14T21:02:39.537Z,43.54
2019-05-14T21:05:13.436Z,43.41
2019-05-14T21:07:39.623Z,44.17
2019-05-14T21:10:09.271Z,43.46
2019-05-14T21:12:39.442Z,44.19
2019-05-14T21:15:11.510Z,44.53
2019-05-14T21:17:40.261Z,44.50
2019-05-14T21:20:09.327Z,44.92
2019-05-14T21:22:40.068Z,44.85
2019-05-14T21:25:11.395Z,44.65
2019-05-14T21:27:48.080Z,44.39
2019-05-14T21:30:09.507Z,44.77
2019-05-14T21:32:39.179Z,46.12
2019-05-14T21:35:08.600Z,45.38
2019-05-14T21:37:39.312Z,46.05
2019-05-14T21:40:09.241Z,46.55
2019-05-14T21:42:38.581Z,47.10
2019-05-14T21:45:09.859Z,46.55
2019-05-14T21:47:38.774Z,47.50
2019-05-14T21:50:09.405Z,47.49
2019-05-14T21:52:39.322Z,46.86
2019-05-14T21:55:09.205Z,46.78
2019-05-14T21:57:38.347Z,47.28
2019-05-14T22:00:24.795Z,47.67
2019-05-14T22:02:53.371Z,48.77
2019-05-14T22:05:22.004Z,48.26
2019-05-14T22:07:50.499Z,47.36
2019-05-14T22:10:19.316Z,47.12
2019-05-14T22:12:48.813Z,47.30
2019-05-14T22:15:18.406Z,48.30
2019-05-14T22:17:49.221Z,48.89
2019-05-14T22:20:19.218Z,47.56
2019-05-14T22:22:48.630Z,48.63
2019-05-14T22:25:18.959Z,48.26
2019-05-14T22:27:49.479Z,48.36
2019-05-14T22:30:18.476Z,48.39
2019-05-14T22:32:47.366Z,49.84
2019-05-14T22:35:19.630Z,49.89
2019-05-14T22:37:48.364Z,48.48
2019-05-14T22:40:18.331Z,48.83
2019-05-14T22:42:46.961Z,48.34
2019-05-14T22:45:15.889Z,48.67
2019-05-14T22:47:44.350Z,49.53
2019-05-14T22:50:13.093Z,50.24
2019-05-14T22:52:41.537Z,49.65
2019-05-14T22:55:10.258Z,49.31
2019-05-14T22:57:39.505Z,49.22
2019-05-14T23:00:10.364Z,50.00
2019-05-14T23:02:38.830Z,50.31
2019-05-14T23:05:08.500Z,50.64
2019-05-14T23:07:38.504Z,50.70
2019-05-14T23:10:09.017Z,51.03
2019-05-14T23:12:38.499Z,50.93
2019-05-14T23:15:08.064Z,51.26
2019-05-14T23:17:38.723Z,50.50
2019-05-14T23:20:09.050Z,51.03
2019-05-14T23:22:39.114Z,51.73
2019-05-14T23:25:09.002Z,50.25
2019-05-14T23:27:39.041Z,52.04
2019-05-14T23:30:09.331Z,52.08
2019-05-14T23:32:38.630Z,51.06
2019-05-14T23:35:08.526Z,50.61
2019-05-14T23:37:37.529Z,51.51
2019-05-14T23:40:08.545Z,50.46
2019-05-14T23:42:39.333Z,50.90
2019-05-14T23:45:08.325Z,52.08
2019-05-14T23:47:38.394Z,51.83
2019-05-14T23:50:08.838Z,51.95
2019-05-14T23:52:38.991Z,51.96
2019-05-14T23:55:08.573Z,52.22
2019-05-14T23:57:37.359Z,52.43
